Time;durP1;ratioP1;P1;durP2;ratioP2;P2;SDS_P1;SDS_P2;PMS_P1;PMS_P2;Temp;Humidity;BMP_temperature;BMP_pressure;BME280_temperature;BME280_humidity;BME280_pressure;Samples;Min_cycle;Max_cycle;Signal;HPM_P1;HPM_P2
2023/08/12 00:00:39;;;;;;;;;;;;;;;24.84;nan;102048.66;5018554;28;20427;-82
2023/08/12 00:03:04;;;;;;;;;;;;;;;24.82;nan;102054.47;5019533;28;19924;-82
2023/08/12 00:05:30;;;;;;;;;;;;;;;24.80;nan;102053.16;5024569;28;19924;-82
2023/08/12 00:07:55;;;;;;;;;;;;;;;24.78;nan;102050.75;5032645;28;19925;-83
2023/08/12 00:10:20;;;;;;;;;;;;;;;24.73;nan;102050.84;5021434;28;19927;-83
2023/08/12 00:12:45;;;;;;;;;;;;;;;24.69;nan;102042.44;5021044;28;20270;-82
2023/08/12 00:15:11;;;;;;;;;;;;;;;24.66;nan;102058.72;5030166;28;20000;-82
2023/08/12 00:17:37;;;;;;;;;;;;;;;24.61;nan;102056.91;5022987;28;19921;-82
2023/08/12 00:20:07;;;;;;;;;;;;;;;24.58;nan;102056.69;5029009;28;19921;-82
2023/08/12 00:22:32;;;;;;;;;;;;;;;24.53;nan;102060.38;5028208;28;19929;-82
2023/08/12 00:24:57;;;;;;;;;;;;;;;24.49;nan;102055.84;5025537;28;19971;-82
2023/08/12 00:27:22;;;;;;;;;;;;;;;24.45;nan;102057.59;5027417;28;20464;-83
2023/08/12 00:29:48;;;;;;;;;;;;;;;24.40;nan;102051.06;5025190;28;20451;-82
2023/08/12 00:32:13;;;;;;;;;;;;;;;24.38;nan;102058.00;5024733;28;19925;-83
2023/08/12 00:34:39;;;;;;;;;;;;;;;24.34;nan;102051.53;5028133;28;19917;-83
2023/08/12 00:37:04;;;;;;;;;;;;;;;24.31;nan;102063.09;5022596;28;19925;-83
2023/08/12 00:39:29;;;;;;;;;;;;;;;24.27;nan;102065.63;5024593;28;19971;-82
2023/08/12 00:41:55;;;;;;;;;;;;;;;24.23;nan;102064.59;5021511;28;19929;-82
2023/08/12 00:44:20;;;;;;;;;;;;;;;24.22;nan;102064.91;5027874;28;19921;-82
2023/08/12 00:46:45;;;;;;;;;;;;;;;24.19;nan;102066.34;5021149;28;19917;-83
2023/08/12 00:49:11;;;;;;;;;;;;;;;24.18;nan;102061.97;5024655;28;19917;-82
2023/08/12 00:51:38;;;;;;;;;;;;;;;24.16;nan;102056.00;5022280;28;19925;-83
2023/08/12 00:54:05;;;;;;;;;;;;;;;24.13;nan;102055.81;5017250;28;19925;-82
2023/08/12 00:56:31;;;;;;;;;;;;;;;24.11;nan;102053.38;5023708;28;20239;-82
2023/08/12 00:58:56;;;;;;;;;;;;;;;24.06;nan;102051.56;5021827;28;20428;-82
2023/08/12 01:01:21;;;;;;;;;;;;;;;24.03;nan;102048.63;5018830;28;19932;-82
2023/08/12 01:03:47;;;;;;;;;;;;;;;24.01;nan;102050.88;5028919;28;19924;-82
2023/08/12 01:06:12;;;;;;;;;;;;;;;23.96;nan;102048.25;5028464;28;19918;-82
2023/08/12 01:08:38;;;;;;;;;;;;;;;23.93;nan;102046.13;5019893;28;21240;-82
2023/08/12 01:11:11;;;;;;;;;;;;;;;23.90;nan;102042.06;5010434;28;20071;-82
2023/08/12 01:13:46;;;;;;;;;;;;;;;23.87;nan;102042.66;5019635;28;19952;-82
2023/08/12 01:16:13;;;;;;;;;;;;;;;23.84;nan;102032.34;5025929;28;19917;-82
2023/08/12 01:18:39;;;;;;;;;;;;;;;23.79;nan;102030.53;5007726;28;20002;-82
2023/08/12 01:21:07;;;;;;;;;;;;;;;23.76;nan;102030.34;5019059;28;19932;-82
2023/08/12 01:23:33;;;;;;;;;;;;;;;23.73;nan;102031.75;5025437;28;20448;-82
2023/08/12 01:25:58;;;;;;;;;;;;;;;23.69;nan;102025.25;5025032;28;20036;-82
2023/08/12 01:28:23;;;;;;;;;;;;;;;23.68;nan;102029.09;5020088;28;20557;-82
2023/08/12 01:30:56;;;;;;;;;;;;;;;23.68;nan;102020.91;5028369;28;19952;-82
2023/08/12 01:33:28;;;;;;;;;;;;;;;23.64;nan;102024.56;5023448;28;19917;-82
2023/08/12 01:35:56;;;;;;;;;;;;;;;23.62;nan;102018.59;5026085;28;19925;-82
2023/08/12 01:38:22;;;;;;;;;;;;;;;23.59;nan;102019.19;5020531;28;20393;-82
2023/08/12 01:40:48;;;;;;;;;;;;;;;23.59;nan;102021.94;5021315;28;19923;-82
2023/08/12 01:43:14;;;;;;;;;;;;;;;23.55;nan;102021.72;5027470;28;20300;-82
2023/08/12 01:45:41;;;;;;;;;;;;;;;23.51;nan;102017.94;5018746;28;20011;-82
2023/08/12 01:48:06;;;;;;;;;;;;;;;23.49;nan;102012.78;5024856;28;20020;-82
2023/08/12 01:50:31;;;;;;;;;;;;;;;23.50;nan;102008.13;5020972;28;20007;-82
2023/08/12 01:52:57;;;;;;;;;;;;;;;23.47;nan;102006.81;5019580;28;19975;-82
2023/08/12 01:55:23;;;;;;;;;;;;;;;23.44;nan;102004.69;5019393;28;20012;-82
2023/08/12 01:57:48;;;;;;;;;;;;;;;23.43;nan;101999.53;5022558;28;19960;-82
2023/08/12 02:00:15;;;;;;;;;;;;;;;23.40;nan;102000.13;5027298;28;20012;-82
2023/08/12 02:02:40;;;;;;;;;;;;;;;23.37;nan;102000.75;5006968;28;19925;-82
2023/08/12 02:05:05;;;;;;;;;;;;;;;23.35;nan;102002.97;5025157;28;20758;-82
2023/08/12 02:07:31;;;;;;;;;;;;;;;23.34;nan;101995.84;5024509;28;19921;-82
2023/08/12 02:09:56;;;;;;;;;;;;;;;23.32;nan;102009.84;5017837;28;19991;-82
2023/08/12 02:12:21;;;;;;;;;;;;;;;23.30;nan;102001.13;5021619;28;20440;-82
2023/08/12 02:14:47;;;;;;;;;;;;;;;23.28;nan;101997.88;5021922;28;20017;-82
2023/08/12 02:17:12;;;;;;;;;;;;;;;23.26;nan;102005.59;5027332;28;19956;-83
2023/08/12 02:19:37;;;;;;;;;;;;;;;23.23;nan;101997.19;5026093;28;19979;-82
2023/08/12 02:22:04;;;;;;;;;;;;;;;23.19;nan;102000.53;5026245;28;20015;-82
2023/08/12 02:24:29;;;;;;;;;;;;;;;23.17;nan;102000.03;5025043;28;19917;-82
2023/08/12 02:26:54;;;;;;;;;;;;;;;23.14;nan;101992.41;5029436;28;19928;-82
2023/08/12 02:29:20;;;;;;;;;;;;;;;23.13;nan;101990.78;5024463;28;19963;-82
2023/08/12 02:31:45;;;;;;;;;;;;;;;23.11;nan;101976.63;5021578;28;20348;-82
2023/08/12 02:34:10;;;;;;;;;;;;;;;23.08;nan;101981.88;5011826;28;19927;-82
2023/08/12 02:36:35;;;;;;;;;;;;;;;23.03;nan;101980.06;5020245;28;20393;-82
2023/08/12 02:39:01;;;;;;;;;;;;;;;23.00;nan;101969.75;5014818;28;20392;-82
2023/08/12 02:41:26;;;;;;;;;;;;;;;22.95;nan;101967.09;5020571;28;20436;-82
2023/08/12 02:43:51;;;;;;;;;;;;;;;22.91;nan;101969.63;5020505;28;20012;-82
2023/08/12 02:46:18;;;;;;;;;;;;;;;22.89;nan;101965.56;5025758;28;20355;-83
2023/08/12 02:48:43;;;;;;;;;;;;;;;22.85;nan;101962.63;5024656;28;19920;-82
2023/08/12 02:51:08;;;;;;;;;;;;;;;22.83;nan;101966.78;5026022;28;19923;-82
2023/08/12 02:53:34;;;;;;;;;;;;;;;22.82;nan;101967.91;5026573;28;20400;-82
2023/08/12 02:55:59;;;;;;;;;;;;;;;22.79;nan;101963.78;5029197;28;20003;-82
2023/08/12 02:58:24;;;;;;;;;;;;;;;22.79;nan;101954.78;5023989;28;20349;-82
2023/08/12 03:00:50;;;;;;;;;;;;;;;22.79;nan;101958.31;5029791;28;19928;-82
2023/08/12 03:03:16;;;;;;;;;;;;;;;22.77;nan;101954.28;5030029;28;20320;-82
2023/08/12 03:05:43;;;;;;;;;;;;;;;22.75;nan;101945.56;5028639;28;20023;-82
2023/08/12 03:08:08;;;;;;;;;;;;;;;22.74;nan;101943.94;5025901;28;19916;-83
2023/08/12 03:10:34;;;;;;;;;;;;;;;22.71;nan;101945.38;5031518;28;19928;-82
2023/08/12 03:12:59;;;;;;;;;;;;;;;22.68;nan;101945.16;5020621;28;19921;-82
2023/08/12 03:15:25;;;;;;;;;;;;;;;22.62;nan;101947.16;5025929;28;19922;-83
2023/08/12 03:17:50;;;;;;;;;;;;;;;22.59;nan;101939.56;5030557;28;20559;-82
2023/08/12 03:20:15;;;;;;;;;;;;;;;22.59;nan;101936.84;5028071;28;19944;-82
2023/08/12 03:22:40;;;;;;;;;;;;;;;22.59;nan;101937.66;5023616;28;20443;-82
2023/08/12 03:25:06;;;;;;;;;;;;;;;22.59;nan;101934.09;5008045;28;21397;-82
2023/08/12 03:27:31;;;;;;;;;;;;;;;22.58;nan;101933.28;5026631;28;20530;-82
2023/08/12 03:29:57;;;;;;;;;;;;;;;22.56;nan;101935.53;5011687;28;20288;-82
2023/08/12 03:32:23;;;;;;;;;;;;;;;22.55;nan;101933.91;5003722;28;20463;-82
2023/08/12 03:34:48;;;;;;;;;;;;;;;22.55;nan;101935.81;5028494;28;19924;-82
2023/08/12 03:37:14;;;;;;;;;;;;;;;22.53;nan;101930.66;5024171;28;19921;-82
2023/08/12 03:39:39;;;;;;;;;;;;;;;22.52;nan;101939.97;5028337;28;19920;-82
2023/08/12 03:42:04;;;;;;;;;;;;;;;22.51;nan;101935.63;5027083;28;20415;-82
2023/08/12 03:44:30;;;;;;;;;;;;;;;22.52;nan;101931.78;5024581;28;19917;-82
2023/08/12 03:46:55;;;;;;;;;;;;;;;22.52;nan;101926.31;5027838;28;20115;-82
2023/08/12 03:49:20;;;;;;;;;;;;;;;22.52;nan;101922.78;5027037;28;19925;-82
2023/08/12 03:51:46;;;;;;;;;;;;;;;22.52;nan;101923.56;5022917;28;19982;-82
2023/08/12 03:54:11;;;;;;;;;;;;;;;22.53;nan;101916.19;5012874;28;19917;-82
2023/08/12 03:56:36;;;;;;;;;;;;;;;22.53;nan;101917.00;5022429;28;20012;-82
2023/08/12 03:59:01;;;;;;;;;;;;;;;22.54;nan;101913.16;5026746;28;20012;-82
2023/08/12 04:01:27;;;;;;;;;;;;;;;22.55;nan;101914.78;5024764;28;20304;-82
2023/08/12 04:03:52;;;;;;;;;;;;;;;22.56;nan;101910.94;5026727;28;20378;-82
2023/08/12 04:06:18;;;;;;;;;;;;;;;22.56;nan;101916.41;5030928;28;19917;-83
2023/08/12 04:08:43;;;;;;;;;;;;;;;22.57;nan;101917.22;5022987;28;19928;-82
2023/08/12 04:11:08;;;;;;;;;;;;;;;22.57;nan;101912.56;5022041;28;19933;-82
2023/08/12 04:13:34;;;;;;;;;;;;;;;22.57;nan;101907.09;5029008;28;19924;-82
2023/08/12 04:15:59;;;;;;;;;;;;;;;22.57;nan;101907.09;5025871;28;20334;-82
2023/08/12 04:18:24;;;;;;;;;;;;;;;22.57;nan;101901.63;5020731;28;20381;-82
2023/08/12 04:20:50;;;;;;;;;;;;;;;22.57;nan;101895.34;5024060;28;20320;-82
2023/08/12 04:23:16;;;;;;;;;;;;;;;22.59;nan;101898.59;5023502;28;19969;-82
2023/08/12 04:25:45;;;;;;;;;;;;;;;22.59;nan;101891.22;5018475;28;20051;-82
2023/08/12 04:28:10;;;;;;;;;;;;;;;22.60;nan;101895.56;5007537;28;19923;-82
2023/08/12 04:30:39;;;;;;;;;;;;;;;22.63;nan;101901.56;5002463;28;20000;-82
2023/08/12 04:33:05;;;;;;;;;;;;;;;22.61;nan;101901.84;5027864;28;19956;-82
2023/08/12 04:35:31;;;;;;;;;;;;;;;22.61;nan;101902.66;5023860;28;19948;-82
2023/08/12 04:37:56;;;;;;;;;;;;;;;22.61;nan;101908.09;5011268;28;20412;-82
2023/08/12 04:40:22;;;;;;;;;;;;;;;22.63;nan;101907.03;5021690;28;19917;-82
2023/08/12 04:42:47;;;;;;;;;;;;;;;22.63;nan;101904.28;5030019;28;19928;-82
2023/08/12 04:45:13;;;;;;;;;;;;;;;22.63;nan;101909.75;5018973;28;19917;-82
2023/08/12 04:47:38;;;;;;;;;;;;;;;22.63;nan;101902.38;5022083;28;20372;-82
2023/08/12 04:50:03;;;;;;;;;;;;;;;22.64;nan;101905.91;5033565;28;19971;-82
2023/08/12 04:52:29;;;;;;;;;;;;;;;22.66;nan;101906.41;5021556;28;19961;-82
2023/08/12 04:54:54;;;;;;;;;;;;;;;22.68;nan;101907.72;5019614;28;20033;-82
2023/08/12 04:57:19;;;;;;;;;;;;;;;22.70;nan;101905.50;5028506;28;19925;-82
2023/08/12 04:59:45;;;;;;;;;;;;;;;22.74;nan;101906.50;5017650;28;20303;-82
2023/08/12 05:02:10;;;;;;;;;;;;;;;22.80;nan;101905.31;5024170;28;19933;-82
2023/08/12 05:04:35;;;;;;;;;;;;;;;22.89;nan;101902.72;5021638;28;19963;-82
2023/08/12 05:07:00;;;;;;;;;;;;;;;23.00;nan;101897.88;5025863;28;19975;-82
2023/08/12 05:09:26;;;;;;;;;;;;;;;23.11;nan;101905.53;5026705;28;20534;-82
2023/08/12 05:11:51;;;;;;;;;;;;;;;23.23;nan;101904.22;5010481;28;19917;-82
2023/08/12 05:14:16;;;;;;;;;;;;;;;23.32;nan;101900.47;5026935;28;20009;-82
2023/08/12 05:16:42;;;;;;;;;;;;;;;23.41;nan;101906.03;5022119;28;19924;-81
2023/08/12 05:19:07;;;;;;;;;;;;;;;23.51;nan;101908.53;5030420;28;19971;-81
2023/08/12 05:21:32;;;;;;;;;;;;;;;23.63;nan;101906.09;5023262;28;19972;-81
2023/08/12 05:23:58;;;;;;;;;;;;;;;23.74;nan;101912.97;5015579;28;20411;-81
2023/08/12 05:26:23;;;;;;;;;;;;;;;23.84;nan;101908.38;5023034;28;19953;-81
2023/08/12 05:28:48;;;;;;;;;;;;;;;23.91;nan;101911.50;5020581;28;20386;-81
2023/08/12 05:31:13;;;;;;;;;;;;;;;23.98;nan;101900.91;5016722;28;19964;-81
2023/08/12 05:33:39;;;;;;;;;;;;;;;24.04;nan;101896.94;5021039;28;19921;-81
2023/08/12 05:36:04;;;;;;;;;;;;;;;24.11;nan;101894.59;5024659;28;20456;-81
2023/08/12 05:38:29;;;;;;;;;;;;;;;24.16;nan;101896.38;5022715;28;19913;-80
2023/08/12 05:40:55;;;;;;;;;;;;;;;24.19;nan;101888.34;5024101;28;19995;-81
2023/08/12 05:43:20;;;;;;;;;;;;;;;24.24;nan;101895.66;5021628;28;19932;-81
2023/08/12 05:45:45;;;;;;;;;;;;;;;24.26;nan;101883.25;5024046;28;19918;-82
2023/08/12 05:48:11;;;;;;;;;;;;;;;24.33;nan;101894.59;5026854;28;19951;-81
2023/08/12 05:50:36;;;;;;;;;;;;;;;24.43;nan;101892.72;5023755;28;19924;-81
2023/08/12 05:53:01;;;;;;;;;;;;;;;24.57;nan;101885.19;5020128;28;19920;-81
2023/08/12 05:55:29;;;;;;;;;;;;;;;24.72;nan;101887.53;5024925;28;20295;-81
2023/08/12 05:57:54;;;;;;;;;;;;;;;24.85;nan;101888.56;5024968;28;19940;-81
2023/08/12 06:00:19;;;;;;;;;;;;;;;25.00;nan;101890.91;5027297;28;20500;-81
2023/08/12 06:02:44;;;;;;;;;;;;;;;25.18;nan;101878.84;5026009;28;19979;-81
2023/08/12 06:05:10;;;;;;;;;;;;;;;25.37;nan;101886.78;5028832;28;19921;-81
2023/08/12 06:07:35;;;;;;;;;;;;;;;25.53;nan;101882.44;5022770;28;19924;-81
2023/08/12 06:10:01;;;;;;;;;;;;;;;25.69;nan;101879.28;5025885;28;19934;-81
2023/08/12 06:12:26;;;;;;;;;;;;;;;25.79;nan;101877.00;5004107;28;19921;-81
2023/08/12 06:14:52;;;;;;;;;;;;;;;25.93;nan;101876.00;5026193;28;19925;-81
2023/08/12 06:17:17;;;;;;;;;;;;;;;26.08;nan;101873.56;5022726;28;19932;-81
2023/08/12 06:19:42;;;;;;;;;;;;;;;26.23;nan;101875.00;5027198;28;19921;-82
2023/08/12 06:22:08;;;;;;;;;;;;;;;26.41;nan;101870.31;5031791;28;19925;-81
2023/08/12 06:24:33;;;;;;;;;;;;;;;26.56;nan;101866.19;5032685;28;20343;-81
2023/08/12 06:26:58;;;;;;;;;;;;;;;26.68;nan;101872.59;5027073;28;20361;-81
2023/08/12 06:29:24;;;;;;;;;;;;;;;26.74;nan;101873.22;5031582;28;19943;-81
2023/08/12 06:31:49;;;;;;;;;;;;;;;26.80;nan;101861.72;5018334;28;19924;-82
2023/08/12 06:34:14;;;;;;;;;;;;;;;26.87;nan;101863.94;5021723;28;19917;-82
2023/08/12 06:36:40;;;;;;;;;;;;;;;26.96;nan;101864.72;5028277;28;19920;-82
2023/08/12 06:39:05;;;;;;;;;;;;;;;27.03;nan;101866.97;5024182;28;19918;-82
2023/08/12 06:41:30;;;;;;;;;;;;;;;27.12;nan;101856.72;5025245;28;19921;-81
2023/08/12 06:43:56;;;;;;;;;;;;;;;27.26;nan;101857.25;5025178;28;20003;-81
2023/08/12 06:46:21;;;;;;;;;;;;;;;27.38;nan;101851.84;5023905;28;19967;-82
2023/08/12 06:48:46;;;;;;;;;;;;;;;27.56;nan;101851.69;5027138;28;19917;-81
2023/08/12 06:51:12;;;;;;;;;;;;;;;27.75;nan;101849.28;5026995;28;20382;-81
2023/08/12 06:53:38;;;;;;;;;;;;;;;27.91;nan;101846.72;5027103;28;19952;-82
2023/08/12 06:56:03;;;;;;;;;;;;;;;28.11;nan;101847.81;5027264;28;19925;-82
2023/08/12 06:58:28;;;;;;;;;;;;;;;28.29;nan;101846.50;5023000;28;19932;-82
2023/08/12 07:00:54;;;;;;;;;;;;;;;28.38;nan;101835.38;5022468;28;19932;-81
2023/08/12 07:03:19;;;;;;;;;;;;;;;28.45;nan;101830.09;5029782;28;19961;-81
2023/08/12 07:05:44;;;;;;;;;;;;;;;28.48;nan;101830.22;5019722;28;20413;-81
2023/08/12 07:08:10;;;;;;;;;;;;;;;28.59;nan;101834.13;5022526;28;20402;-81
2023/08/12 07:10:38;;;;;;;;;;;;;;;28.63;nan;101837.00;5019842;28;19940;-82
2023/08/12 07:13:03;;;;;;;;;;;;;;;28.73;nan;101825.53;5021721;28;20413;-82
2023/08/12 07:15:28;;;;;;;;;;;;;;;28.85;nan;101821.94;5027846;28;19925;-81
2023/08/12 07:17:53;;;;;;;;;;;;;;;29.00;nan;101828.72;5023662;28;20394;-81
2023/08/12 07:20:19;;;;;;;;;;;;;;;29.15;nan;101828.81;5020005;28;19924;-82
2023/08/12 07:22:44;;;;;;;;;;;;;;;29.31;nan;101826.13;5022708;28;19925;-82
2023/08/12 07:25:10;;;;;;;;;;;;;;;29.45;nan;101828.50;5022386;28;19925;-82
2023/08/12 07:27:35;;;;;;;;;;;;;;;29.62;nan;101825.47;5023718;28;19918;-81
2023/08/12 07:30:00;;;;;;;;;;;;;;;29.81;nan;101829.56;5024415;28;19925;-82
2023/08/12 07:32:26;;;;;;;;;;;;;;;29.99;nan;101830.84;5021020;28;19921;-81
2023/08/12 07:34:51;;;;;;;;;;;;;;;30.16;nan;101829.69;5022611;28;19920;-82
2023/08/12 07:37:16;;;;;;;;;;;;;;;30.32;nan;101823.03;5023350;28;19924;-82
2023/08/12 07:39:42;;;;;;;;;;;;;;;30.59;nan;101823.28;5023730;28;20012;-82
2023/08/12 07:42:07;;;;;;;;;;;;;;;30.82;nan;101818.72;5022332;28;19954;-82
2023/08/12 07:44:32;;;;;;;;;;;;;;;31.07;nan;101816.53;5024553;28;20080;-82
2023/08/12 07:46:57;;;;;;;;;;;;;;;31.25;nan;101808.63;5022355;28;19921;-82
2023/08/12 07:49:23;;;;;;;;;;;;;;;31.43;nan;101803.47;5017806;28;19917;-82
2023/08/12 07:51:48;;;;;;;;;;;;;;;31.53;nan;101803.66;5010274;28;19917;-82
2023/08/12 07:54:13;;;;;;;;;;;;;;;31.60;nan;101802.19;5026458;28;19989;-81
2023/08/12 07:56:39;;;;;;;;;;;;;;;31.57;nan;101801.75;5020286;28;20398;-82
2023/08/12 07:59:04;;;;;;;;;;;;;;;31.60;nan;101800.25;5021802;28;19918;-82
2023/08/12 08:01:29;;;;;;;;;;;;;;;31.71;nan;101800.44;5021839;28;19917;-82
2023/08/12 08:03:55;;;;;;;;;;;;;;;31.83;nan;101800.31;5023665;28;19925;-82
2023/08/12 08:06:20;;;;;;;;;;;;;;;31.93;nan;101796.91;5021703;28;19928;-82
2023/08/12 08:08:45;;;;;;;;;;;;;;;32.07;nan;101794.41;5023415;28;20021;-82
2023/08/12 08:11:11;;;;;;;;;;;;;;;32.24;nan;101792.28;5020399;28;20401;-82
2023/08/12 08:13:36;;;;;;;;;;;;;;;32.41;nan;101794.59;5023947;28;20365;-82
2023/08/12 08:16:01;;;;;;;;;;;;;;;32.59;nan;101797.63;5022629;28;19920;-82
2023/08/12 08:18:27;;;;;;;;;;;;;;;32.70;nan;101799.41;5023831;28;20027;-82
2023/08/12 08:20:52;;;;;;;;;;;;;;;32.82;nan;101798.41;5025065;28;19917;-82
2023/08/12 08:23:17;;;;;;;;;;;;;;;32.86;nan;101796.50;5025666;28;19925;-82
2023/08/12 08:25:43;;;;;;;;;;;;;;;32.82;nan;101800.38;5024456;28;19917;-82
2023/08/12 08:28:08;;;;;;;;;;;;;;;32.72;nan;101802.59;5021607;28;19963;-82
2023/08/12 08:30:33;;;;;;;;;;;;;;;32.69;nan;101808.91;5025394;28;20017;-82
2023/08/12 08:32:59;;;;;;;;;;;;;;;32.70;nan;101801.38;5022346;28;19920;-81
2023/08/12 08:35:24;;;;;;;;;;;;;;;32.86;nan;101796.50;5019178;28;20792;-81
2023/08/12 08:37:50;;;;;;;;;;;;;;;33.06;nan;101794.38;5018328;28;19917;-81
2023/08/12 08:40:15;;;;;;;;;;;;;;;33.21;nan;101796.13;5021492;28;19932;-81
2023/08/12 08:42:42;;;;;;;;;;;;;;;33.37;nan;101792.41;5020280;28;19929;-81
2023/08/12 08:45:11;;;;;;;;;;;;;;;33.53;nan;101781.88;5022029;28;20431;-81
2023/08/12 08:47:37;;;;;;;;;;;;;;;33.64;nan;101780.00;5004208;28;19917;-81
2023/08/12 08:50:03;;;;;;;;;;;;;;;33.61;nan;101780.78;5020953;28;19944;-82
2023/08/12 08:52:29;;;;;;;;;;;;;;;33.66;nan;101772.09;5027509;28;19928;-81
2023/08/12 08:54:55;;;;;;;;;;;;;;;33.79;nan;101767.88;5019088;28;19925;-81
2023/08/12 08:57:20;;;;;;;;;;;;;;;33.93;nan;101764.41;5018538;28;19922;-81
2023/08/12 08:59:46;;;;;;;;;;;;;;;33.99;nan;101765.69;5023307;28;19928;-81
2023/08/12 09:02:15;;;;;;;;;;;;;;;34.07;nan;101769.31;5018888;28;19926;-82
2023/08/12 09:04:41;;;;;;;;;;;;;;;34.16;nan;101769.81;5023167;28;19928;-81
2023/08/12 09:07:07;;;;;;;;;;;;;;;34.23;nan;101770.66;5022765;28;19917;-80
2023/08/12 09:09:32;;;;;;;;;;;;;;;34.31;nan;101768.72;5019195;28;19924;-80
2023/08/12 09:11:58;;;;;;;;;;;;;;;34.35;nan;101761.22;5024519;28;20061;-80
2023/08/12 09:14:23;;;;;;;;;;;;;;;34.43;nan;101757.31;5019393;28;20492;-80
2023/08/12 09:16:49;;;;;;;;;;;;;;;34.45;nan;101756.91;5022620;28;19925;-80
2023/08/12 09:19:14;;;;;;;;;;;;;;;34.45;nan;101757.72;5020480;28;20512;-80
2023/08/12 09:21:41;;;;;;;;;;;;;;;34.42;nan;101754.91;5018949;28;20871;-80
2023/08/12 09:24:08;;;;;;;;;;;;;;;34.44;nan;101750.56;5025216;28;19921;-80
2023/08/12 09:26:33;;;;;;;;;;;;;;;34.40;nan;101746.94;5004463;28;20004;-80
2023/08/12 09:29:00;;;;;;;;;;;;;;;34.41;nan;101748.53;5021030;28;19924;-80
2023/08/12 09:31:30;;;;;;;;;;;;;;;34.39;nan;101752.91;5022736;28;19921;-81
2023/08/12 09:33:59;;;;;;;;;;;;;;;34.37;nan;101752.50;5018107;28;19932;-80
2023/08/12 09:36:27;;;;;;;;;;;;;;;34.35;nan;101752.88;5026548;28;19974;-80
2023/08/12 09:38:52;;;;;;;;;;;;;;;34.37;nan;101750.50;5018295;28;19931;-80
2023/08/12 09:41:18;;;;;;;;;;;;;;;34.35;nan;101752.06;5023622;28;19921;-80
2023/08/12 09:43:44;;;;;;;;;;;;;;;34.34;nan;101750.47;5021381;28;19928;-80
2023/08/12 09:46:16;;;;;;;;;;;;;;;34.34;nan;101751.25;5019902;28;19978;-80
2023/08/12 09:48:41;;;;;;;;;;;;;;;34.31;nan;101751.25;5019518;28;19932;-80
2023/08/12 09:51:07;;;;;;;;;;;;;;;34.21;nan;101747.97;5019798;28;19921;-81
2023/08/12 09:53:36;;;;;;;;;;;;;;;34.17;nan;101744.38;5005951;28;19948;-81
2023/08/12 09:56:05;;;;;;;;;;;;;;;34.18;nan;101742.41;5026575;28;20388;-81
2023/08/12 09:58:32;;;;;;;;;;;;;;;34.12;nan;101738.38;5028384;28;20678;-80
2023/08/12 10:00:57;;;;;;;;;;;;;;;34.07;nan;101735.94;5023895;28;20459;-81
2023/08/12 10:03:23;;;;;;;;;;;;;;;34.06;nan;101731.56;5019171;28;19940;-82
2023/08/12 10:05:48;;;;;;;;;;;;;;;34.03;nan;101735.13;5026563;28;19946;-81
2023/08/12 10:08:14;;;;;;;;;;;;;;;34.00;nan;101736.69;5020794;28;19943;-81
2023/08/12 10:10:39;;;;;;;;;;;;;;;33.94;nan;101735.47;5022471;28;19928;-81
2023/08/12 10:13:07;;;;;;;;;;;;;;;33.89;nan;101728.25;5020776;28;19917;-79
2023/08/12 10:15:33;;;;;;;;;;;;;;;33.87;nan;101722.28;5020066;28;20080;-81
2023/08/12 10:17:58;;;;;;;;;;;;;;;33.88;nan;101721.09;5023372;28;20040;-81
2023/08/12 10:20:24;;;;;;;;;;;;;;;33.96;nan;101704.50;5022423;28;19925;-81
2023/08/12 10:22:50;;;;;;;;;;;;;;;34.02;nan;101702.94;5016567;28;19925;-81
2023/08/12 10:25:17;;;;;;;;;;;;;;;34.02;nan;101689.03;5020595;28;19924;-81
2023/08/12 10:27:43;;;;;;;;;;;;;;;34.03;nan;101690.63;5025835;28;19920;-81
2023/08/12 10:30:09;;;;;;;;;;;;;;;34.05;nan;101693.81;5024102;28;20293;-81
2023/08/12 10:32:34;;;;;;;;;;;;;;;34.12;nan;101707.81;5012103;28;19917;-81
2023/08/12 10:35:00;;;;;;;;;;;;;;;34.12;nan;101700.25;5026898;28;19924;-82
2023/08/12 10:37:25;;;;;;;;;;;;;;;34.16;nan;101686.38;5021592;28;19932;-81
2023/08/12 10:39:54;;;;;;;;;;;;;;;34.14;nan;101683.97;5019578;28;19924;-82
2023/08/12 10:42:38;;;;;;;;;;;;;;;34.18;nan;101692.34;5016850;28;19961;-82
2023/08/12 10:45:05;;;;;;;;;;;;;;;34.17;nan;101687.97;5027599;28;19921;-81
2023/08/12 10:47:31;;;;;;;;;;;;;;;34.24;nan;101699.13;5022185;28;19921;-81
2023/08/12 10:49:56;;;;;;;;;;;;;;;34.35;nan;101707.56;5020731;28;19940;-81
2023/08/12 10:52:32;;;;;;;;;;;;;;;34.48;nan;101711.66;5025040;28;20359;-81
2023/08/12 10:55:16;;;;;;;;;;;;;;;34.60;nan;101714.06;5024313;28;19998;-81
2023/08/12 10:57:41;;;;;;;;;;;;;;;34.67;nan;101713.34;5019831;28;20142;-81
2023/08/12 11:00:11;;;;;;;;;;;;;;;34.84;nan;101707.84;5015042;28;19928;-84
2023/08/12 11:02:37;;;;;;;;;;;;;;;35.00;nan;101698.38;5022022;28;19957;-82
2023/08/12 11:05:04;;;;;;;;;;;;;;;35.05;nan;101703.56;5017972;28;19972;-81
2023/08/12 11:07:38;;;;;;;;;;;;;;;35.10;nan;101697.59;5027047;28;20424;-83
2023/08/12 11:10:04;;;;;;;;;;;;;;;35.05;nan;101689.66;5026405;28;19925;-83
2023/08/12 11:12:32;;;;;;;;;;;;;;;34.94;nan;101678.47;5020549;28;20460;-83
2023/08/12 11:14:59;;;;;;;;;;;;;;;34.92;nan;101688.41;5023883;28;19998;-82
2023/08/12 11:17:32;;;;;;;;;;;;;;;34.82;nan;101684.34;5024987;28;19931;-86
2023/08/12 11:19:58;;;;;;;;;;;;;;;34.74;nan;101669.63;5022807;28;19921;-81
2023/08/12 11:22:24;;;;;;;;;;;;;;;34.65;nan;101673.94;5018226;28;19929;-83
2023/08/12 11:24:50;;;;;;;;;;;;;;;34.67;nan;101671.59;4999918;28;20507;-84
2023/08/12 11:27:16;;;;;;;;;;;;;;;34.75;nan;101674.00;5018425;28;19925;-82
2023/08/12 11:29:41;;;;;;;;;;;;;;;34.84;nan;101673.66;5016167;28;19931;-81
2023/08/12 11:32:06;;;;;;;;;;;;;;;34.87;nan;101672.88;5017587;28;19918;-81
2023/08/12 11:34:32;;;;;;;;;;;;;;;34.86;nan;101667.72;5018644;28;19932;-80
2023/08/12 11:36:58;;;;;;;;;;;;;;;34.80;nan;101661.66;5022057;28;20551;-83
2023/08/12 11:39:23;;;;;;;;;;;;;;;34.79;nan;101660.88;5019721;28;20786;-82
2023/08/12 11:41:50;;;;;;;;;;;;;;;34.78;nan;101652.91;5022104;28;20687;-84
2023/08/12 11:44:15;;;;;;;;;;;;;;;34.78;nan;101650.13;5020703;28;20044;-82
2023/08/12 11:46:41;;;;;;;;;;;;;;;34.77;nan;101657.69;5024535;28;19976;-80
2023/08/12 11:49:06;;;;;;;;;;;;;;;34.82;nan;101645.38;5021022;28;19931;-80
2023/08/12 11:51:32;;;;;;;;;;;;;;;34.86;nan;101639.88;5021078;28;19927;-82
2023/08/12 11:53:58;;;;;;;;;;;;;;;34.93;nan;101642.66;5023295;28;20389;-82
2023/08/12 11:56:23;;;;;;;;;;;;;;;34.98;nan;101634.72;5021185;28;21732;-84
2023/08/12 11:58:50;;;;;;;;;;;;;;;35.08;nan;101633.94;5023021;28;19925;-80
2023/08/12 12:01:15;;;;;;;;;;;;;;;35.19;nan;101622.00;5021339;28;19928;-84
2023/08/12 12:03:41;;;;;;;;;;;;;;;35.30;nan;101617.25;5023114;28;19929;-85
2023/08/12 12:06:06;;;;;;;;;;;;;;;35.47;nan;101616.50;5021789;28;19922;-81
2023/08/12 12:08:32;;;;;;;;;;;;;;;35.58;nan;101622.09;5020004;28;19948;-84
2023/08/12 12:11:03;;;;;;;;;;;;;;;35.66;nan;101615.31;5017607;28;19925;-83
2023/08/12 12:13:29;;;;;;;;;;;;;;;35.74;nan;101619.69;5018708;28;20020;-82
2023/08/12 12:15:55;;;;;;;;;;;;;;;35.89;nan;101606.53;5016425;28;19925;-82
2023/08/12 12:18:20;;;;;;;;;;;;;;;36.00;nan;101604.53;5021102;28;19924;-82
2023/08/12 12:20:58;;;;;;;;;;;;;;;36.06;nan;101602.13;5019074;28;19937;-82
2023/08/12 12:23:27;;;;;;;;;;;;;;;36.10;nan;101600.13;5016843;28;19932;-83
2023/08/12 12:25:59;;;;;;;;;;;;;;;36.08;nan;101594.94;5020773;28;20659;-83
2023/08/12 12:28:24;;;;;;;;;;;;;;;36.07;nan;101596.13;5018612;28;19921;-81
2023/08/12 12:30:49;;;;;;;;;;;;;;;36.06;nan;101596.53;5013300;28;19971;-82
2023/08/12 12:33:14;;;;;;;;;;;;;;;36.05;nan;101594.94;5016828;28;19917;-82
2023/08/12 12:35:40;;;;;;;;;;;;;;;36.06;nan;101597.34;5023643;28;19963;-82
2023/08/12 12:38:05;;;;;;;;;;;;;;;36.09;nan;101601.31;5017143;28;19959;-84
2023/08/12 12:40:31;;;;;;;;;;;;;;;36.08;nan;101605.28;5016204;28;19932;-81
2023/08/12 12:42:56;;;;;;;;;;;;;;;35.98;nan;101601.34;5018618;28;20834;-82
2023/08/12 12:45:21;;;;;;;;;;;;;;;35.87;nan;101601.38;5025109;28;20327;-83
2023/08/12 12:47:47;;;;;;;;;;;;;;;35.73;nan;101595.81;5021651;28;19921;-83
2023/08/12 12:50:12;;;;;;;;;;;;;;;35.66;nan;101599.38;5021257;28;19969;-81